Time;durP1;ratioP1;P1;durP2;ratioP2;P2;SDS_P1;SDS_P2;PMS_P1;PMS_P2;Temp;Humidity;BMP_temperature;BMP_pressure;BME280_temperature;BME280_humidity;BME280_pressure;Samples;Min_cycle;Max_cycle;Signal;HPM_P1;HPM_P2
2023/03/15 00:02:16;;;;;;;;;3.00;2.67;;;;;;;;119374;1194;24972;-68
2023/03/15 00:04:44;;;;;;;;;3.67;2.00;;;;;;;;119437;1185;25317;-68
2023/03/15 00:07:12;;;;;;;;;2.00;2.00;;;;;;;;119400;1185;25688;-67
2023/03/15 00:09:41;;;;;;;;;4.00;4.00;;;;;;;;119419;1194;25774;-69
2023/03/15 00:12:11;;;;;;;;;3.00;3.00;;;;;;;;119461;1194;25126;-67
2023/03/15 00:14:39;;;;;;;;;3.67;2.00;;;;;;;;119410;1194;25148;-67
2023/03/15 00:17:07;;;;;;;;;2.00;2.00;;;;;;;;119412;1187;26039;-68
2023/03/15 00:19:35;;;;;;;;;3.33;2.33;;;;;;;;119428;1185;24744;-69
2023/03/15 00:22:04;;;;;;;;;5.33;3.00;;;;;;;;119423;1194;25446;-69
2023/03/15 00:24:32;;;;;;;;;3.00;3.00;;;;;;;;119392;1194;25196;-69
2023/03/15 00:27:00;;;;;;;;;2.50;2.50;;;;;;;;119378;1194;25477;-68
2023/03/15 00:29:29;;;;;;;;;5.00;3.67;;;;;;;;119416;1194;25080;-68
2023/03/15 00:31:57;;;;;;;;;5.00;2.00;;;;;;;;119426;1194;24916;-69
2023/03/15 00:34:25;;;;;;;;;4.33;3.67;;;;;;;;119424;1185;25050;-68
2023/03/15 00:36:53;;;;;;;;;4.00;4.00;;;;;;;;119432;1185;25605;-68
2023/03/15 00:39:24;;;;;;;;;5.00;2.00;;;;;;;;119395;1194;24948;-68
2023/03/15 00:41:55;;;;;;;;;5.00;2.00;;;;;;;;119384;1194;25285;-69
2023/03/15 00:44:24;;;;;;;;;3.00;3.00;;;;;;;;119481;1190;24882;-68
2023/03/15 00:46:52;;;;;;;;;3.75;3.00;;;;;;;;119446;1194;25557;-68
2023/03/15 00:49:20;;;;;;;;;3.00;3.00;;;;;;;;119416;1190;24939;-68
2023/03/15 00:51:48;;;;;;;;;4.50;4.00;;;;;;;;119436;1186;24875;-68
2023/03/15 00:54:17;;;;;;;;;2.00;2.00;;;;;;;;119449;1193;24975;-68
2023/03/15 00:56:45;;;;;;;;;2.50;2.50;;;;;;;;119521;1193;24858;-68
2023/03/15 00:59:13;;;;;;;;;2.00;0.25;;;;;;;;119423;1193;25068;-68
2023/03/15 01:01:43;;;;;;;;;3.00;2.00;;;;;;;;119398;1193;25586;-68
2023/03/15 01:04:12;;;;;;;;;3.00;2.50;;;;;;;;119395;1185;24810;-68
2023/03/15 01:06:41;;;;;;;;;4.00;2.00;;;;;;;;119375;1194;25200;-68
2023/03/15 01:09:09;;;;;;;;;4.00;2.00;;;;;;;;119475;1190;25249;-68
2023/03/15 01:11:37;;;;;;;;;3.75;3.50;;;;;;;;119435;1185;24738;-68
2023/03/15 01:14:07;;;;;;;;;4.00;3.00;;;;;;;;119454;1184;25417;-68
2023/03/15 01:16:36;;;;;;;;;4.25;2.75;;;;;;;;119475;1184;24756;-68
2023/03/15 01:19:04;;;;;;;;;2.00;2.00;;;;;;;;119383;1190;25533;-68
2023/03/15 01:21:32;;;;;;;;;6.00;3.00;;;;;;;;119454;1180;25138;-68
2023/03/15 01:24:00;;;;;;;;;3.50;3.50;;;;;;;;119475;1185;25104;-68
2023/03/15 01:26:29;;;;;;;;;3.00;3.00;;;;;;;;119418;1186;25301;-67
2023/03/15 01:28:57;;;;;;;;;4.00;3.00;;;;;;;;119592;1193;25312;-69
2023/03/15 01:31:28;;;;;;;;;2.00;2.00;;;;;;;;119425;1192;25168;-70
2023/03/15 01:33:58;;;;;;;;;3.75;2.75;;;;;;;;119470;1193;25571;-69
2023/03/15 01:36:26;;;;;;;;;3.50;2.00;;;;;;;;119429;1190;24964;-69
2023/03/15 01:38:54;;;;;;;;;3.00;3.00;;;;;;;;119433;1193;25509;-69
2023/03/15 01:41:24;;;;;;;;;1.00;1.00;;;;;;;;119439;1187;24931;-69
2023/03/15 01:43:52;;;;;;;;;3.33;3.33;;;;;;;;119351;1187;24942;-69
2023/03/15 01:46:34;;;;;;;;;3.00;2.00;;;;;;;;119420;1193;24896;-69
2023/03/15 01:49:07;;;;;;;;;4.50;2.00;;;;;;;;119378;1187;25041;-68
2023/03/15 01:51:40;;;;;;;;;2.00;2.00;;;;;;;;119409;1193;24946;-68
2023/03/15 01:54:24;;;;;;;;;0.50;0.50;;;;;;;;119465;1185;25532;-68
2023/03/15 01:57:08;;;;;;;;;4.67;4.67;;;;;;;;119390;1193;25147;-68
2023/03/15 01:59:54;;;;;;;;;2.67;2.00;;;;;;;;119502;1193;24940;-68
2023/03/15 02:02:24;;;;;;;;;2.00;2.00;;;;;;;;119395;1191;25512;-68
2023/03/15 02:05:00;;;;;;;;;1.33;1.33;;;;;;;;119448;1193;25686;-68
2023/03/15 02:07:33;;;;;;;;;2.00;2.00;;;;;;;;119394;1186;25624;-68
2023/03/15 02:10:11;;;;;;;;;1.00;1.00;;;;;;;;119427;1193;24774;-68
2023/03/15 02:12:42;;;;;;;;;2.00;2.00;;;;;;;;119432;1193;25229;-68
2023/03/15 02:15:10;;;;;;;;;3.00;3.00;;;;;;;;119342;1183;25176;-69
2023/03/15 02:17:44;;;;;;;;;4.00;2.50;;;;;;;;119441;1186;25089;-68
2023/03/15 02:20:37;;;;;;;;;2.00;2.00;;;;;;;;119422;1193;25687;-68
2023/03/15 02:23:10;;;;;;;;;3.00;3.00;;;;;;;;119372;1193;25430;-68
2023/03/15 02:25:47;;;;;;;;;1.25;1.00;;;;;;;;119370;1187;24917;-68
2023/03/15 02:28:17;;;;;;;;;3.33;2.33;;;;;;;;119520;1185;25245;-68
2023/03/15 02:30:46;;;;;;;;;3.00;2.00;;;;;;;;119363;1191;25053;-69
2023/03/15 02:33:28;;;;;;;;;2.00;1.00;;;;;;;;119404;1185;24994;-68
2023/03/15 02:36:20;;;;;;;;;1.50;1.50;;;;;;;;119396;1191;25264;-68
2023/03/15 02:38:49;;;;;;;;;2.50;2.50;;;;;;;;119408;1180;25570;-68
2023/03/15 02:41:22;;;;;;;;;4.00;2.00;;;;;;;;119397;1185;25337;-68
2023/03/15 02:43:54;;;;;;;;;5.00;4.00;;;;;;;;119381;1193;25149;-68
2023/03/15 02:46:22;;;;;;;;;2.50;2.00;;;;;;;;119387;1191;25611;-68
2023/03/15 02:48:53;;;;;;;;;2.00;2.00;;;;;;;;119421;1182;25077;-68
2023/03/15 02:51:27;;;;;;;;;2.00;2.00;;;;;;;;119461;1182;25244;-69
2023/03/15 02:53:55;;;;;;;;;1.00;1.00;;;;;;;;119438;1193;25009;-68
2023/03/15 02:56:23;;;;;;;;;3.00;2.00;;;;;;;;119419;1193;24693;-68
2023/03/15 02:58:51;;;;;;;;;2.00;2.00;;;;;;;;119509;1184;25047;-68
2023/03/15 03:01:20;;;;;;;;;2.50;2.00;;;;;;;;119428;1184;25080;-68
2023/03/15 03:03:48;;;;;;;;;2.00;2.00;;;;;;;;119524;1185;25453;-68
2023/03/15 03:06:17;;;;;;;;;3.00;3.00;;;;;;;;119466;1190;25015;-69
2023/03/15 03:08:46;;;;;;;;;2.25;2.00;;;;;;;;119365;1194;25254;-68
2023/03/15 03:11:15;;;;;;;;;2.00;2.00;;;;;;;;119422;1193;25347;-69
2023/03/15 03:13:43;;;;;;;;;2.00;2.00;;;;;;;;119420;1186;24914;-69
2023/03/15 03:16:11;;;;;;;;;4.67;4.00;;;;;;;;119391;1194;25481;-68
2023/03/15 03:18:41;;;;;;;;;0.00;0.00;;;;;;;;119564;1180;25437;-68
2023/03/15 03:21:09;;;;;;;;;2.00;2.00;;;;;;;;119375;1194;24915;-69
2023/03/15 03:23:37;;;;;;;;;2.67;2.67;;;;;;;;119410;1193;25644;-69
2023/03/15 03:26:15;;;;;;;;;4.00;4.00;;;;;;;;119462;1191;25619;-69
2023/03/15 03:28:45;;;;;;;;;4.00;4.00;;;;;;;;119339;1194;24735;-69
2023/03/15 03:31:18;;;;;;;;;3.50;2.00;;;;;;;;119399;1180;25018;-69
2023/03/15 03:33:46;;;;;;;;;4.00;2.33;;;;;;;;119404;1190;25054;-68
2023/03/15 03:36:15;;;;;;;;;1.00;1.00;;;;;;;;119414;1193;25545;-68
2023/03/15 03:38:44;;;;;;;;;1.00;1.00;;;;;;;;119372;1194;25563;-69
2023/03/15 03:41:14;;;;;;;;;2.00;2.00;;;;;;;;119510;1185;25677;-69
2023/03/15 03:43:42;;;;;;;;;2.00;1.50;;;;;;;;119341;1187;25150;-69
2023/03/15 03:46:10;;;;;;;;;1.50;1.50;;;;;;;;119375;1193;25226;-69
2023/03/15 03:48:38;;;;;;;;;2.33;2.33;;;;;;;;119711;1189;24702;-69
2023/03/15 03:51:07;;;;;;;;;4.00;3.00;;;;;;;;119455;1185;24704;-68
2023/03/15 03:53:35;;;;;;;;;2.00;2.00;;;;;;;;119488;1185;25267;-69
2023/03/15 03:56:04;;;;;;;;;2.00;2.00;;;;;;;;119444;1193;25604;-68
2023/03/15 03:58:33;;;;;;;;;2.00;2.00;;;;;;;;119482;1185;25502;-68
2023/03/15 04:01:03;;;;;;;;;3.50;3.00;;;;;;;;119354;1191;25715;-69
2023/03/15 04:08:39;;;;;;;;;3.67;2.67;;;;;;;;116325;1194;23338;-69
2023/03/15 04:11:08;;;;;;;;;2.33;1.33;;;;;;;;117020;1188;25045;-68
2023/03/15 04:13:36;;;;;;;;;2.00;2.00;;;;;;;;117120;1184;25410;-69
2023/03/15 04:16:05;;;;;;;;;1.00;1.00;;;;;;;;117298;1183;25574;-68
2023/03/15 04:18:34;;;;;;;;;2.00;2.00;;;;;;;;117311;1190;25446;-69
2023/03/15 04:21:03;;;;;;;;;2.00;2.00;;;;;;;;117088;1184;25048;-68
2023/03/15 04:23:33;;;;;;;;;2.50;2.00;;;;;;;;117120;1189;25680;-68
2023/03/15 04:26:02;;;;;;;;;1.33;1.33;;;;;;;;117287;1196;25141;-68
2023/03/15 04:28:31;;;;;;;;;2.00;2.00;;;;;;;;117413;1182;25214;-68
2023/03/15 04:31:00;;;;;;;;;5.33;0.33;;;;;;;;117371;1183;26270;-68
2023/03/15 04:33:30;;;;;;;;;1.75;1.75;;;;;;;;117377;1182;25669;-68
2023/03/15 04:36:01;;;;;;;;;2.33;2.33;;;;;;;;117412;1183;25883;-68
2023/03/15 04:38:31;;;;;;;;;2.00;2.00;;;;;;;;117427;1193;24934;-68
2023/03/15 04:40:59;;;;;;;;;3.67;3.00;;;;;;;;117408;1192;25679;-68
2023/03/15 04:43:28;;;;;;;;;2.00;2.00;;;;;;;;117422;1183;26414;-68
2023/03/15 04:45:56;;;;;;;;;2.50;2.50;;;;;;;;117410;1194;25101;-67
2023/03/15 04:48:24;;;;;;;;;2.50;2.50;;;;;;;;117362;1194;25536;-68
2023/03/15 04:50:52;;;;;;;;;4.00;1.00;;;;;;;;117328;1183;25619;-68
2023/03/15 04:53:21;;;;;;;;;1.67;1.67;;;;;;;;117390;1189;25479;-68
2023/03/15 04:55:49;;;;;;;;;3.00;3.00;;;;;;;;117354;1184;25006;-68
2023/03/15 04:58:18;;;;;;;;;2.00;2.00;;;;;;;;117358;1193;25108;-68
2023/03/15 05:00:47;;;;;;;;;3.33;3.00;;;;;;;;117390;1182;25629;-67
2023/03/15 05:03:15;;;;;;;;;2.75;2.75;;;;;;;;117418;1183;25672;-68
2023/03/15 05:05:44;;;;;;;;;5.00;5.00;;;;;;;;117422;1184;25458;-67
2023/03/15 05:08:13;;;;;;;;;6.33;5.00;;;;;;;;117384;1186;24874;-68
2023/03/15 05:10:42;;;;;;;;;4.00;4.00;;;;;;;;117337;1181;25106;-67
2023/03/15 05:13:10;;;;;;;;;6.33;5.00;;;;;;;;117349;1184;24703;-67
2023/03/15 05:15:38;;;;;;;;;6.00;5.00;;;;;;;;117367;1182;25872;-67
2023/03/15 05:18:07;;;;;;;;;7.25;4.00;;;;;;;;117360;1182;25147;-66
2023/03/15 05:20:35;;;;;;;;;3.00;3.00;;;;;;;;117360;1182;25644;-66
2023/03/15 05:23:04;;;;;;;;;5.75;5.75;;;;;;;;117375;1184;24757;-66
2023/03/15 05:25:32;;;;;;;;;6.67;5.33;;;;;;;;117407;1182;24717;-66
2023/03/15 05:28:03;;;;;;;;;7.25;7.25;;;;;;;;117404;1185;25506;-65
2023/03/15 05:30:32;;;;;;;;;9.00;8.00;;;;;;;;117397;1183;25216;-65
2023/03/15 05:33:03;;;;;;;;;7.50;4.50;;;;;;;;117361;1194;25065;-65
2023/03/15 05:35:32;;;;;;;;;5.00;4.50;;;;;;;;117576;1179;25311;-65
2023/03/15 05:38:02;;;;;;;;;10.25;3.00;;;;;;;;117580;1179;25101;-65
2023/03/15 05:40:31;;;;;;;;;4.50;3.00;;;;;;;;117618;1190;25460;-65
2023/03/15 05:43:00;;;;;;;;;5.67;4.67;;;;;;;;117586;1193;24899;-65
2023/03/15 05:45:28;;;;;;;;;5.75;5.75;;;;;;;;117584;1180;25181;-65
2023/03/15 05:47:56;;;;;;;;;5.75;4.00;;;;;;;;117563;1181;24922;-65
2023/03/15 05:50:27;;;;;;;;;5.00;5.00;;;;;;;;117363;1184;25368;-65
2023/03/15 05:52:56;;;;;;;;;3.00;3.00;;;;;;;;117596;1193;25736;-65
2023/03/15 05:55:24;;;;;;;;;4.00;4.00;;;;;;;;117607;1180;25778;-67
2023/03/15 05:57:52;;;;;;;;;1.33;1.00;;;;;;;;117408;1190;24783;-66
2023/03/15 06:00:21;;;;;;;;;4.00;4.00;;;;;;;;117416;1193;25081;-68
2023/03/15 06:02:50;;;;;;;;;5.67;5.00;;;;;;;;117649;1186;24861;-68
2023/03/15 06:05:18;;;;;;;;;9.00;7.67;;;;;;;;117687;1180;24841;-66
2023/03/15 06:07:46;;;;;;;;;3.67;3.67;;;;;;;;117785;1180;25053;-63
2023/03/15 06:10:15;;;;;;;;;6.67;5.67;;;;;;;;117799;1190;25382;-65
2023/03/15 06:12:44;;;;;;;;;7.50;5.50;;;;;;;;117672;1181;25012;-61
2023/03/15 06:15:12;;;;;;;;;5.50;5.50;;;;;;;;117408;1184;25272;-62
2023/03/15 06:17:40;;;;;;;;;5.25;4.00;;;;;;;;117403;1182;25071;-62
2023/03/15 06:20:10;;;;;;;;;8.67;5.67;;;;;;;;117491;1183;24891;-60
2023/03/15 06:22:38;;;;;;;;;10.00;6.50;;;;;;;;117770;1193;24734;-59
2023/03/15 06:25:08;;;;;;;;;4.67;4.00;;;;;;;;117828;1193;24982;-60
2023/03/15 06:27:37;;;;;;;;;11.25;9.00;;;;;;;;117829;1181;25389;-60
2023/03/15 06:30:06;;;;;;;;;7.33;5.67;;;;;;;;117727;1179;25883;-59
2023/03/15 06:32:34;;;;;;;;;6.25;6.00;;;;;;;;117628;1179;26128;-61
2023/03/15 06:35:04;;;;;;;;;9.75;7.00;;;;;;;;117516;1193;24959;-60
2023/03/15 06:37:34;;;;;;;;;1.00;1.00;;;;;;;;117526;1190;25643;-60
2023/03/15 06:40:08;;;;;;;;;10.33;6.00;;;;;;;;117814;1181;24871;-60
2023/03/15 06:42:38;;;;;;;;;9.50;6.50;;;;;;;;117832;1186;26268;-59
2023/03/15 06:45:08;;;;;;;;;7.75;5.50;;;;;;;;117817;1179;25110;-61
2023/03/15 06:47:37;;;;;;;;;6.00;4.50;;;;;;;;117477;1182;25129;-61
2023/03/15 06:50:06;;;;;;;;;7.33;6.67;;;;;;;;117849;1178;25343;-60
2023/03/15 06:52:34;;;;;;;;;9.00;5.00;;;;;;;;117925;1177;24863;-61
2023/03/15 06:55:04;;;;;;;;;10.75;7.25;;;;;;;;117841;1187;25199;-62
2023/03/15 06:57:32;;;;;;;;;10.00;6.50;;;;;;;;117849;1190;25401;-67
2023/03/15 07:00:01;;;;;;;;;9.00;5.00;;;;;;;;117866;1178;24923;-61
2023/03/15 07:02:32;;;;;;;;;8.00;8.00;;;;;;;;117863;1177;25208;-59
2023/03/15 07:05:01;;;;;;;;;7.33;6.67;;;;;;;;118687;1177;25149;-59
2023/03/15 07:07:29;;;;;;;;;8.00;8.00;;;;;;;;117786;1179;24926;-58
2023/03/15 07:09:57;;;;;;;;;6.33;6.00;;;;;;;;117779;1182;25086;-60
2023/03/15 07:12:26;;;;;;;;;9.00;8.00;;;;;;;;117779;1177;25046;-60
2023/03/15 07:14:54;;;;;;;;;7.33;6.33;;;;;;;;117810;1186;24804;-60
2023/03/15 07:17:23;;;;;;;;;9.00;9.00;;;;;;;;117814;1182;25539;-60
2023/03/15 07:19:51;;;;;;;;;8.00;6.75;;;;;;;;117861;1186;25583;-60
2023/03/15 07:22:25;;;;;;;;;7.33;6.00;;;;;;;;117855;1181;25270;-60
2023/03/15 07:24:53;;;;;;;;;10.00;6.75;;;;;;;;117875;1179;24896;-60
2023/03/15 07:27:22;;;;;;;;;8.75;6.25;;;;;;;;117842;1180;24853;-60
2023/03/15 07:29:50;;;;;;;;;9.75;6.50;;;;;;;;117807;1177;25310;-60
2023/03/15 07:32:19;;;;;;;;;9.00;8.75;;;;;;;;117905;1177;25549;-60
2023/03/15 07:34:48;;;;;;;;;4.75;4.75;;;;;;;;117858;1187;26303;-59
2023/03/15 07:37:16;;;;;;;;;10.75;9.75;;;;;;;;117901;1190;25540;-60
2023/03/15 07:39:45;;;;;;;;;10.67;7.67;;;;;;;;117803;1182;24817;-59
2023/03/15 07:42:13;;;;;;;;;13.00;8.00;;;;;;;;117836;1180;25962;-59
2023/03/15 07:44:42;;;;;;;;;10.67;8.00;;;;;;;;117841;1191;24801;-59
2023/03/15 07:47:11;;;;;;;;;9.33;7.00;;;;;;;;117895;1177;25454;-59
2023/03/15 07:49:39;;;;;;;;;8.75;7.25;;;;;;;;117892;1177;24977;-59
2023/03/15 07:52:08;;;;;;;;;8.00;8.00;;;;;;;;117831;1179;24785;-59
2023/03/15 07:54:36;;;;;;;;;7.75;6.75;;;;;;;;117837;1179;25032;-59
2023/03/15 07:57:04;;;;;;;;;7.00;6.00;;;;;;;;117942;1179;24992;-63
2023/03/15 07:59:33;;;;;;;;;8.50;6.75;;;;;;;;117976;1179;24866;-60
2023/03/15 08:02:01;;;;;;;;;7.00;5.00;;;;;;;;117929;1179;25127;-61
2023/03/15 08:04:30;;;;;;;;;6.00;5.50;;;;;;;;117923;1191;25300;-60
2023/03/15 08:07:00;;;;;;;;;7.75;7.75;;;;;;;;117915;1179;25334;-61
2023/03/15 08:09:31;;;;;;;;;8.75;6.25;;;;;;;;117902;1191;24875;-59
2023/03/15 08:12:01;;;;;;;;;5.00;5.00;;;;;;;;117932;1178;25175;-60
2023/03/15 08:14:30;;;;;;;;;7.50;7.00;;;;;;;;117909;1180;25379;-62
2023/03/15 08:16:59;;;;;;;;;6.33;5.67;;;;;;;;117894;1191;25479;-62
2023/03/15 08:19:27;;;;;;;;;5.50;5.50;;;;;;;;117892;1177;25149;-62
2023/03/15 08:21:56;;;;;;;;;5.33;5.33;;;;;;;;117896;1181;24996;-62
2023/03/15 08:24:24;;;;;;;;;7.50;5.00;;;;;;;;117849;1191;24819;-62
2023/03/15 08:26:52;;;;;;;;;10.67;6.67;;;;;;;;117855;1180;25359;-62
2023/03/15 08:29:21;;;;;;;;;10.67;8.33;;;;;;;;117910;1178;25079;-62
2023/03/15 08:31:49;;;;;;;;;11.67;7.00;;;;;;;;117858;1178;24995;-63
2023/03/15 08:34:18;;;;;;;;;9.00;6.00;;;;;;;;117835;1180;24830;-61
2023/03/15 08:36:47;;;;;;;;;7.33;5.33;;;;;;;;117907;1178;24993;-61
2023/03/15 08:39:16;;;;;;;;;6.33;6.00;;;;;;;;117934;1191;24738;-60
2023/03/15 08:41:46;;;;;;;;;7.67;7.67;;;;;;;;117922;1181;25176;-61
2023/03/15 08:44:14;;;;;;;;;6.00;5.00;;;;;;;;118836;1186;25762;-61
2023/03/15 08:46:43;;;;;;;;;6.75;6.75;;;;;;;;117850;1177;25219;-60
2023/03/15 08:49:11;;;;;;;;;6.67;5.67;;;;;;;;117952;1187;25112;-61
2023/03/15 08:51:39;;;;;;;;;7.67;5.00;;;;;;;;117899;1179;24893;-61
2023/03/15 08:54:08;;;;;;;;;8.50;6.50;;;;;;;;117906;1184;25166;-61
2023/03/15 08:56:36;;;;;;;;;6.25;6.25;;;;;;;;117930;1184;26403;-61
2023/03/15 08:59:05;;;;;;;;;8.75;7.00;;;;;;;;117931;1177;24919;-60
2023/03/15 09:01:33;;;;;;;;;7.00;6.00;;;;;;;;117913;1179;25146;-61
2023/03/15 09:04:02;;;;;;;;;6.75;5.50;;;;;;;;117930;1191;25516;-60
2023/03/15 09:06:30;;;;;;;;;7.00;5.50;;;;;;;;117930;1191;25538;-60
2023/03/15 09:08:59;;;;;;;;;8.25;6.00;;;;;;;;117920;1178;24795;-60
2023/03/15 09:11:27;;;;;;;;;10.67;5.00;;;;;;;;117916;1177;24970;-60
2023/03/15 09:13:56;;;;;;;;;7.75;6.25;;;;;;;;117929;1177;25536;-61
2023/03/15 09:16:25;;;;;;;;;3.50;3.50;;;;;;;;117940;1191;24943;-61
2023/03/15 09:18:53;;;;;;;;;6.00;5.25;;;;;;;;117939;1191;25496;-60
2023/03/15 09:21:23;;;;;;;;;6.67;5.67;;;;;;;;117809;1180;25451;-61
2023/03/15 09:23:52;;;;;;;;;7.00;7.00;;;;;;;;117934;1182;25334;-61
2023/03/15 09:26:22;;;;;;;;;6.25;5.25;;;;;;;;117939;1191;25699;-61
2023/03/15 09:28:50;;;;;;;;;9.75;5.25;;;;;;;;117840;1177;24735;-61
2023/03/15 09:31:18;;;;;;;;;7.00;5.75;;;;;;;;117882;1177;25070;-62
2023/03/15 09:33:48;;;;;;;;;6.00;4.50;;;;;;;;117855;1177;25596;-62
2023/03/15 09:36:16;;;;;;;;;6.00;6.00;;;;;;;;117903;1180;25392;-62
2023/03/15 09:38:46;;;;;;;;;6.00;6.00;;;;;;;;117912;1181;25210;-62
2023/03/15 09:41:41;;;;;;;;;10.50;7.00;;;;;;;;117909;1177;24734;-62
2023/03/15 09:44:20;;;;;;;;;8.00;5.00;;;;;;;;117875;1181;25321;-62
2023/03/15 09:47:33;;;;;;;;;4.00;4.00;;;;;;;;117934;1180;24900;-62
2023/03/15 09:50:25;;;;;;;;;5.00;5.00;;;;;;;;117815;1191;25364;-62
2023/03/15 09:53:03;;;;;;;;;7.00;6.25;;;;;;;;117944;1177;25055;-62
2023/03/15 09:55:32;;;;;;;;;6.67;5.67;;;;;;;;117946;1177;25767;-62
2023/03/15 09:58:10;;;;;;;;;7.00;6.00;;;;;;;;117894;1191;25335;-61
2023/03/15 10:00:51;;;;;;;;;7.50;5.50;;;;;;;;117930;1180;24813;-61
2023/03/15 10:03:26;;;;;;;;;8.33;7.00;;;;;;;;117867;1191;25499;-61
2023/03/15 10:06:25;;;;;;;;;4.25;3.75;;;;;;;;117879;1183;25188;-61
2023/03/15 10:08:57;;;;;;;;;2.25;2.25;;;;;;;;117788;1187;25124;-60
2023/03/15 10:11:40;;;;;;;;;7.00;5.00;;;;;;;;117951;1177;25562;-61
2023/03/15 10:14:18;;;;;;;;;6.25;5.75;;;;;;;;117919;1181;25079;-61
2023/03/15 10:16:48;;;;;;;;;8.67;6.67;;;;;;;;117923;1177;25328;-61
2023/03/15 10:19:19;;;;;;;;;7.00;6.00;;;;;;;;117900;1177;25036;-60
2023/03/15 10:22:03;;;;;;;;;5.75;5.75;;;;;;;;117876;1184;25491;-61
2023/03/15 10:25:15;;;;;;;;;10.67;6.33;;;;;;;;117869;1178;25591;-65
2023/03/15 10:27:56;;;;;;;;;8.33;7.00;;;;;;;;117928;1177;25142;-66
2023/03/15 10:30:30;;;;;;;;;6.75;6.25;;;;;;;;117882;1177;25633;-64
2023/03/15 10:33:35;;;;;;;;;7.67;5.67;;;;;;;;117895;1191;24749;-60
2023/03/15 10:36:18;;;;;;;;;5.00;5.00;;;;;;;;117902;1180;25092;-61
2023/03/15 10:38:49;;;;;;;;;6.75;6.00;;;;;;;;117884;1182;24771;-61
2023/03/15 10:41:29;;;;;;;;;8.00;6.75;;;;;;;;117913;1191;25578;-61
2023/03/15 10:44:01;;;;;;;;;8.00;6.33;;;;;;;;117813;1179;25619;-61
2023/03/15 10:46:30;;;;;;;;;6.00;6.00;;;;;;;;117919;1191;25166;-61
2023/03/15 10:49:10;;;;;;;;;6.00;6.00;;;;;;;;117920;1181;25662;-61
2023/03/15 10:51:44;;;;;;;;;6.67;5.33;;;;;;;;117918;1177;25056;-61
2023/03/15 10:54:18;;;;;;;;;4.00;4.00;;;;;;;;117867;1185;25409;-61
2023/03/15 10:56:47;;;;;;;;;7.00;5.75;;;;;;;;117821;1180;25060;-61
2023/03/15 10:59:23;;;;;;;;;7.75;7.00;;;;;;;;118149;1177;25800;-61
2023/03/15 11:01:53;;;;;;;;;7.25;5.25;;;;;;;;117833;1191;25753;-61
2023/03/15 11:04:26;;;;;;;;;6.50;6.25;;;;;;;;117896;1178;26140;-61
2023/03/15 11:06:54;;;;;;;;;5.33;5.00;;;;;;;;117807;1191;25359;-61
2023/03/15 11:09:25;;;;;;;;;8.00;6.00;;;;;;;;117870;1177;25141;-62
2023/03/15 11:11:56;;;;;;;;;5.67;4.33;;;;;;;;117889;1191;25288;-61
2023/03/15 11:14:27;;;;;;;;;5.00;5.00;;;;;;;;117950;1177;25425;-61
2023/03/15 11:16:58;;;;;;;;;8.00;6.00;;;;;;;;117868;1191;25324;-61
2023/03/15 11:19:28;;;;;;;;;6.00;5.00;;;;;;;;117898;1191;24921;-62
2023/03/15 11:21:59;;;;;;;;;4.00;4.00;;;;;;;;117919;1177;25606;-62
2023/03/15 11:24:29;;;;;;;;;7.00;7.00;;;;;;;;117820;1179;24827;-62
2023/03/15 11:27:01;;;;;;;;;6.75;5.25;;;;;;;;119896;1183;26351;-62
2023/03/15 11:29:31;;;;;;;;;7.00;5.50;;;;;;;;119877;1191;25158;-62
2023/03/15 11:32:03;;;;;;;;;6.67;3.67;;;;;;;;117937;1191;24908;-63
2023/03/15 11:34:41;;;;;;;;;7.67;6.67;;;;;;;;117801;1191;26457;-62
2023/03/15 11:37:22;;;;;;;;;5.75;5.50;;;;;;;;117858;1177;25032;-63
2023/03/15 11:39:53;;;;;;;;;3.50;3.00;;;;;;;;117857;1186;25663;-62
2023/03/15 11:43:16;;;;;;;;;5.25;3.75;;;;;;;;117880;1191;25308;-62
2023/03/15 11:45:57;;;;;;;;;7.00;6.00;;;;;;;;117897;1177;25182;-62
2023/03/15 11:48:39;;;;;;;;;4.00;4.00;;;;;;;;117946;1177;24768;-64
2023/03/15 11:51:10;;;;;;;;;3.00;3.00;;;;;;;;117899;1179;25700;-62
2023/03/15 11:53:47;;;;;;;;;6.50;5.25;;;;;;;;117948;1191;25698;-62
2023/03/15 11:56:45;;;;;;;;;7.00;5.75;;;;;;;;117872;1180;25675;-62
2023/03/15 11:59:20;;;;;;;;;7.33;7.00;;;;;;;;117951;1178;25421;-62
2023/03/15 12:01:54;;;;;;;;;5.50;4.50;;;;;;;;117914;1177;25566;-62
2023/03/15 12:04:32;;;;;;;;;5.00;5.00;;;;;;;;117843;1177;25528;-62
2023/03/15 12:07:11;;;;;;;;;5.00;5.00;;;;;;;;117873;1180;24952;-61
2023/03/15 12:09:51;;;;;;;;;7.50;5.25;;;;;;;;117903;1180;24729;-62
2023/03/15 12:12:25;;;;;;;;;7.25;5.50;;;;;;;;117858;1182;24993;-62
2023/03/15 12:15:18;;;;;;;;;6.33;4.00;;;;;;;;117899;1186;25486;-61
2023/03/15 12:17:56;;;;;;;;;6.00;6.00;;;;;;;;117906;1179;24802;-60
2023/03/15 12:20:38;;;;;;;;;6.25;5.00;;;;;;;;117924;1177;24729;-61
2023/03/15 12:23:06;;;;;;;;;6.00;5.33;;;;;;;;117911;1178;25388;-62
2023/03/15 12:25:37;;;;;;;;;6.50;6.50;;;;;;;;117922;1191;24791;-62
2023/03/15 12:28:33;;;;;;;;;4.50;4.50;;;;;;;;117921;1177;25059;-62
2023/03/15 12:31:05;;;;;;;;;6.00;6.00;;;;;;;;117964;1179;25699;-63
2023/03/15 12:33:45;;;;;;;;;10.00;7.33;;;;;;;;117933;1177;25439;-64
2023/03/15 12:36:34;;;;;;;;;6.00;5.50;;;;;;;;117939;1191;25500;-65
2023/03/15 12:39:14;;;;;;;;;6.00;6.00;;;;;;;;117830;1177;24713;-63
2023/03/15 12:41:46;;;;;;;;;7.00;6.00;;;;;;;;117874;1177;24854;-63
2023/03/15 12:44:32;;;;;;;;;7.75;5.75;;;;;;;;117858;1177;24939;-65
2023/03/15 12:47:03;;;;;;;;;6.00;5.50;;;;;;;;117868;1191;25623;-62
2023/03/15 12:49:43;;;;;;;;;9.00;7.00;;;;;;;;117873;1178;25354;-61
2023/03/15 12:52:12;;;;;;;;;6.33;6.00;;;;;;;;117913;1178;25348;-62
2023/03/15 12:54:53;;;;;;;;;8.00;6.67;;;;;;;;117883;1182;25082;-64
2023/03/15 12:57:25;;;;;;;;;6.67;5.33;;;;;;;;117885;1177;25403;-63
2023/03/15 13:00:10;;;;;;;;;6.00;6.00;;;;;;;;117882;1177;24928;-62
2023/03/15 13:02:54;;;;;;;;;7.33;7.33;;;;;;;;117925;1190;25557;-63
2023/03/15 13:05:26;;;;;;;;;8.25;7.00;;;;;;;;117909;1191;25614;-61
2023/03/15 13:07:58;;;;;;;;;9.75;7.00;;;;;;;;117943;1178;25003;-62
2023/03/15 13:11:03;;;;;;;;;8.00;8.00;;;;;;;;117923;1183;25072;-62
2023/03/15 13:13:59;;;;;;;;;5.33;5.33;;;;;;;;117933;1178;25678;-62
2023/03/15 13:16:34;;;;;;;;;9.00;8.50;;;;;;;;117931;1191;25511;-62
2023/03/15 13:19:12;;;;;;;;;7.00;7.00;;;;;;;;117945;1177;24718;-62
2023/03/15 13:21:51;;;;;;;;;7.00;7.00;;;;;;;;117900;1177;25485;-62
2023/03/15 13:24:30;;;;;;;;;7.00;7.00;;;;;;;;117799;1179;25093;-62
2023/03/15 13:27:16;;;;;;;;;7.50;6.75;;;;;;;;117934;1190;24766;-62
2023/03/15 13:29:45;;;;;;;;;7.00;7.00;;;;;;;;117898;1177;24949;-62
2023/03/15 13:32:16;;;;;;;;;11.00;9.00;;;;;;;;117948;1191;25215;-62
2023/03/15 13:34:46;;;;;;;;;7.67;7.67;;;;;;;;117936;1177;24742;-62
2023/03/15 13:37:30;;;;;;;;;7.67;7.00;;;;;;;;117950;1191;25496;-62
2023/03/15 13:40:01;;;;;;;;;9.33;7.00;;;;;;;;117883;1177;24962;-62
2023/03/15 13:42:29;;;;;;;;;8.00;8.00;;;;;;;;117930;1178;25651;-62
2023/03/15 13:45:15;;;;;;;;;7.67;7.00;;;;;;;;117907;1191;25980;-62
2023/03/15 13:47:44;;;;;;;;;9.33;8.33;;;;;;;;117915;1177;24867;-62
2023/03/15 13:50:19;;;;;;;;;8.00;6.00;;;;;;;;117932;1190;25173;-63
2023/03/15 13:52:48;;;;;;;;;7.00;5.00;;;;;;;;117872;1191;24757;-63
2023/03/15 13:55:21;;;;;;;;;7.75;7.75;;;;;;;;117929;1177;25561;-69
2023/03/15 13:57:55;;;;;;;;;8.00;8.00;;;;;;;;117876;1177;25119;-66
2023/03/15 14:00:25;;;;;;;;;8.75;8.00;;;;;;;;117891;1187;25069;-63
2023/03/15 14:02:57;;;;;;;;;7.00;7.00;;;;;;;;117879;1181;25691;-62
2023/03/15 14:05:28;;;;;;;;;8.25;8.25;;;;;;;;117885;1177;25460;-61
2023/03/15 14:08:01;;;;;;;;;10.00;9.00;;;;;;;;117922;1178;25466;-61
2023/03/15 14:10:32;;;;;;;;;9.00;9.00;;;;;;;;117940;1182;25652;-61
2023/03/15 14:13:23;;;;;;;;;9.50;9.50;;;;;;;;117920;1177;25059;-61
2023/03/15 14:16:04;;;;;;;;;8.75;7.75;;;;;;;;117922;1183;25560;-62
2023/03/15 14:18:37;;;;;;;;;8.33;7.67;;;;;;;;117943;1191;25572;-61
2023/03/15 14:21:15;;;;;;;;;9.33;8.00;;;;;;;;117917;1179;25752;-61
2023/03/15 14:23:46;;;;;;;;;9.33;9.33;;;;;;;;117866;1177;24943;-62
2023/03/15 14:26:28;;;;;;;;;9.25;9.25;;;;;;;;117839;1191;25676;-62
2023/03/15 14:29:03;;;;;;;;;6.67;5.67;;;;;;;;117906;1177;25657;-62
2023/03/15 14:31:34;;;;;;;;;5.75;5.00;;;;;;;;117924;1186;25665;-61
2023/03/15 14:34:32;;;;;;;;;5.00;5.00;;;;;;;;117928;1177;25480;-61
2023/03/15 14:37:06;;;;;;;;;6.00;5.75;;;;;;;;117952;1177;25163;-62
2023/03/15 14:39:40;;;;;;;;;8.50;8.00;;;;;;;;117865;1191;24922;-62
2023/03/15 14:42:10;;;;;;;;;8.00;8.00;;;;;;;;117938;1177;24711;-62
2023/03/15 14:44:39;;;;;;;;;7.25;7.25;;;;;;;;117876;1177;25648;-62
2023/03/15 14:47:15;;;;;;;;;8.50;7.50;;;;;;;;117866;1177;24739;-61
2023/03/15 14:49:43;;;;;;;;;7.75;5.50;;;;;;;;117885;1179;25556;-62
2023/03/15 14:52:12;;;;;;;;;7.00;7.00;;;;;;;;117945;1191;25254;-61
2023/03/15 14:54:50;;;;;;;;;8.00;6.33;;;;;;;;117967;1177;25590;-61
2023/03/15 14:57:18;;;;;;;;;8.00;8.00;;;;;;;;117931;1180;25754;-61
2023/03/15 14:59:48;;;;;;;;;8.00;8.00;;;;;;;;117977;1188;24785;-63
2023/03/15 15:02:17;;;;;;;;;5.50;5.50;;;;;;;;117913;1180;24870;-63
2023/03/15 15:04:47;;;;;;;;;7.75;6.75;;;;;;;;117926;1180;25214;-62